sensor_id;sensor_type;location;lat;lon;timestamp;temperature;humidity
60860;DHT22;46694;54.382;9.708;2023-05-07T00:01:23;8.50;99.90
60860;DHT22;46694;54.382;9.708;2023-05-07T00:04:03;8.50;99.90
60860;DHT22;46694;54.382;9.708;2023-05-07T00:06:43;8.50;99.90
60860;DHT22;46694;54.382;9.708;2023-05-07T00:09:22;8.60;99.90
60860;DHT22;46694;54.382;9.708;2023-05-07T00:12:02;8.60;99.90
60860;DHT22;46694;54.382;9.708;2023-05-07T00:14:42;8.60;99.90
60860;DHT22;46694;54.382;9.708;2023-05-07T00:17:21;8.60;99.90
60860;DHT22;46694;54.382;9.708;2023-05-07T00:20:02;8.60;99.90
60860;DHT22;46694;54.382;9.708;2023-05-07T00:22:42;8.60;99.90
60860;DHT22;46694;54.382;9.708;2023-05-07T00:25:22;8.60;99.90
60860;DHT22;46694;54.382;9.708;2023-05-07T00:28:01;8.60;99.90
60860;DHT22;46694;54.382;9.708;2023-05-07T00:30:42;8.60;99.90
60860;DHT22;46694;54.382;9.708;2023-05-07T00:33:22;8.60;99.90
60860;DHT22;46694;54.382;9.708;2023-05-07T00:36:02;8.60;99.90
60860;DHT22;46694;54.382;9.708;2023-05-07T00:38:41;8.60;99.90
60860;DHT22;46694;54.382;9.708;2023-05-07T00:41:21;8.60;99.90
60860;DHT22;46694;54.382;9.708;2023-05-07T00:44:00;8.60;99.90
60860;DHT22;46694;54.382;9.708;2023-05-07T00:46:40;8.60;99.90
60860;DHT22;46694;54.382;9.708;2023-05-07T00:49:20;8.60;99.90
60860;DHT22;46694;54.382;9.708;2023-05-07T00:52:00;8.60;99.90
60860;DHT22;46694;54.382;9.708;2023-05-07T00:54:41;8.60;99.90
60860;DHT22;46694;54.382;9.708;2023-05-07T00:57:21;8.60;99.90
60860;DHT22;46694;54.382;9.708;2023-05-07T01:00:02;8.60;99.90
60860;DHT22;46694;54.382;9.708;2023-05-07T01:02:43;8.60;99.90
60860;DHT22;46694;54.382;9.708;2023-05-07T01:05:24;8.60;99.90
60860;DHT22;46694;54.382;9.708;2023-05-07T01:08:05;8.60;99.90
60860;DHT22;46694;54.382;9.708;2023-05-07T01:10:46;8.60;99.90
60860;DHT22;46694;54.382;9.708;2023-05-07T01:13:25;8.70;99.90
60860;DHT22;46694;54.382;9.708;2023-05-07T01:16:05;8.70;99.90
60860;DHT22;46694;54.382;9.708;2023-05-07T01:18:45;8.70;99.90
60860;DHT22;46694;54.382;9.708;2023-05-07T01:21:31;8.70;99.90
60860;DHT22;46694;54.382;9.708;2023-05-07T01:24:12;8.70;99.90
60860;DHT22;46694;54.382;9.708;2023-05-07T01:26:51;8.70;99.90
60860;DHT22;46694;54.382;9.708;2023-05-07T01:29:31;8.70;99.90
60860;DHT22;46694;54.382;9.708;2023-05-07T01:32:15;8.70;99.90
60860;DHT22;46694;54.382;9.708;2023-05-07T01:34:58;8.70;99.90
60860;DHT22;46694;54.382;9.708;2023-05-07T01:37:39;8.80;99.90
60860;DHT22;46694;54.382;9.708;2023-05-07T01:40:20;8.80;99.90
60860;DHT22;46694;54.382;9.708;2023-05-07T01:43:00;8.80;99.90
60860;DHT22;46694;54.382;9.708;2023-05-07T01:45:41;8.80;99.90
60860;DHT22;46694;54.382;9.708;2023-05-07T01:48:21;8.80;99.90
60860;DHT22;46694;54.382;9.708;2023-05-07T01:51:01;8.80;99.90
60860;DHT22;46694;54.382;9.708;2023-05-07T01:53:41;8.80;99.90
60860;DHT22;46694;54.382;9.708;2023-05-07T01:56:22;8.90;99.90
60860;DHT22;46694;54.382;9.708;2023-05-07T01:59:03;8.90;99.90
60860;DHT22;46694;54.382;9.708;2023-05-07T02:01:42;8.90;99.90
60860;DHT22;46694;54.382;9.708;2023-05-07T02:04:22;8.90;99.90
60860;DHT22;46694;54.382;9.708;2023-05-07T02:07:02;8.90;99.90
60860;DHT22;46694;54.382;9.708;2023-05-07T02:09:41;8.90;99.90
60860;DHT22;46694;54.382;9.708;2023-05-07T02:12:21;8.90;99.90
60860;DHT22;46694;54.382;9.708;2023-05-07T02:15:01;8.90;99.90
60860;DHT22;46694;54.382;9.708;2023-05-07T02:18:03;8.90;99.90
60860;DHT22;46694;54.382;9.708;2023-05-07T02:20:45;8.90;99.90
60860;DHT22;46694;54.382;9.708;2023-05-07T02:23:25;8.90;99.90
60860;DHT22;46694;54.382;9.708;2023-05-07T02:26:04;8.90;99.90
60860;DHT22;46694;54.382;9.708;2023-05-07T02:28:44;9.00;99.90
60860;DHT22;46694;54.382;9.708;2023-05-07T02:31:23;9.00;99.90
60860;DHT22;46694;54.382;9.708;2023-05-07T02:34:03;9.00;99.90
60860;DHT22;46694;54.382;9.708;2023-05-07T02:36:43;9.00;99.90
60860;DHT22;46694;54.382;9.708;2023-05-07T02:39:22;9.00;99.90
60860;DHT22;46694;54.382;9.708;2023-05-07T02:42:02;9.00;99.90
60860;DHT22;46694;54.382;9.708;2023-05-07T02:44:41;9.00;99.90
60860;DHT22;46694;54.382;9.708;2023-05-07T02:47:21;9.00;99.90
60860;DHT22;46694;54.382;9.708;2023-05-07T02:50:01;9.00;99.90
60860;DHT22;46694;54.382;9.708;2023-05-07T02:52:44;9.00;99.90
60860;DHT22;46694;54.382;9.708;2023-05-07T02:55:24;9.00;99.90
60860;DHT22;46694;54.382;9.708;2023-05-07T02:58:03;9.00;99.90
60860;DHT22;46694;54.382;9.708;2023-05-07T03:00:43;9.00;99.90
60860;DHT22;46694;54.382;9.708;2023-05-07T03:03:22;9.00;99.90
60860;DHT22;46694;54.382;9.708;2023-05-07T03:06:02;9.00;99.90
60860;DHT22;46694;54.382;9.708;2023-05-07T03:08:41;9.00;99.90
60860;DHT22;46694;54.382;9.708;2023-05-07T03:11:21;9.00;99.90
60860;DHT22;46694;54.382;9.708;2023-05-07T03:14:00;9.00;99.90
60860;DHT22;46694;54.382;9.708;2023-05-07T03:16:40;9.00;99.90
60860;DHT22;46694;54.382;9.708;2023-05-07T03:19:19;8.90;99.90
60860;DHT22;46694;54.382;9.708;2023-05-07T03:21:59;9.00;99.90
60860;DHT22;46694;54.382;9.708;2023-05-07T03:24:38;8.90;99.90
60860;DHT22;46694;54.382;9.708;2023-05-07T03:27:18;9.00;99.90
60860;DHT22;46694;54.382;9.708;2023-05-07T03:29:57;9.00;99.90
60860;DHT22;46694;54.382;9.708;2023-05-07T03:32:37;9.00;99.90
60860;DHT22;46694;54.382;9.708;2023-05-07T03:35:17;9.00;99.90
60860;DHT22;46694;54.382;9.708;2023-05-07T03:37:56;9.00;99.90
60860;DHT22;46694;54.382;9.708;2023-05-07T03:40:36;9.00;99.90
60860;DHT22;46694;54.382;9.708;2023-05-07T03:43:15;9.00;99.90
60860;DHT22;46694;54.382;9.708;2023-05-07T03:45:55;9.00;99.90
60860;DHT22;46694;54.382;9.708;2023-05-07T03:48:34;9.00;99.90
60860;DHT22;46694;54.382;9.708;2023-05-07T03:51:14;9.00;99.90
60860;DHT22;46694;54.382;9.708;2023-05-07T03:53:54;9.00;99.90
60860;DHT22;46694;54.382;9.708;2023-05-07T03:56:36;9.00;99.90
60860;DHT22;46694;54.382;9.708;2023-05-07T03:59:15;9.10;99.90
60860;DHT22;46694;54.382;9.708;2023-05-07T04:01:55;9.10;99.90
60860;DHT22;46694;54.382;9.708;2023-05-07T04:04:34;9.10;99.90
60860;DHT22;46694;54.382;9.708;2023-05-07T04:07:14;9.00;99.90
60860;DHT22;46694;54.382;9.708;2023-05-07T04:09:54;9.10;99.90
60860;DHT22;46694;54.382;9.708;2023-05-07T04:12:33;9.10;99.90
60860;DHT22;46694;54.382;9.708;2023-05-07T04:15:13;9.10;99.90
60860;DHT22;46694;54.382;9.708;2023-05-07T04:17:52;9.10;99.90
60860;DHT22;46694;54.382;9.708;2023-05-07T04:20:34;9.10;99.90
60860;DHT22;46694;54.382;9.708;2023-05-07T04:23:15;9.20;99.90
60860;DHT22;46694;54.382;9.708;2023-05-07T04:25:54;9.20;99.90
60860;DHT22;46694;54.382;9.708;2023-05-07T04:28:34;9.20;99.90
60860;DHT22;46694;54.382;9.708;2023-05-07T04:31:14;9.20;99.90
60860;DHT22;46694;54.382;9.708;2023-05-07T04:33:54;9.20;99.90
60860;DHT22;46694;54.382;9.708;2023-05-07T04:36:34;9.20;99.90
60860;DHT22;46694;54.382;9.708;2023-05-07T04:39:13;9.10;99.90
60860;DHT22;46694;54.382;9.708;2023-05-07T04:41:53;9.20;99.90
60860;DHT22;46694;54.382;9.708;2023-05-07T04:44:32;9.20;99.90
60860;DHT22;46694;54.382;9.708;2023-05-07T04:47:13;9.20;99.90
60860;DHT22;46694;54.382;9.708;2023-05-07T04:49:53;9.20;99.90
60860;DHT22;46694;54.382;9.708;2023-05-07T04:52:32;9.20;99.90
60860;DHT22;46694;54.382;9.708;2023-05-07T04:55:12;9.20;99.90
60860;DHT22;46694;54.382;9.708;2023-05-07T04:57:52;9.20;99.90
60860;DHT22;46694;54.382;9.708;2023-05-07T05:00:32;9.20;99.90
60860;DHT22;46694;54.382;9.708;2023-05-07T05:03:12;9.30;99.90
60860;DHT22;46694;54.382;9.708;2023-05-07T05:05:52;9.30;99.90
60860;DHT22;46694;54.382;9.708;2023-05-07T05:08:32;9.30;99.90
60860;DHT22;46694;54.382;9.708;2023-05-07T05:11:11;9.30;99.90
60860;DHT22;46694;54.382;9.708;2023-05-07T05:13:51;9.30;99.90
60860;DHT22;46694;54.382;9.708;2023-05-07T05:16:30;9.30;99.90
60860;DHT22;46694;54.382;9.708;2023-05-07T05:19:10;9.30;99.90
60860;DHT22;46694;54.382;9.708;2023-05-07T05:21:49;9.30;99.90
60860;DHT22;46694;54.382;9.708;2023-05-07T05:24:30;9.40;99.90
60860;DHT22;46694;54.382;9.708;2023-05-07T05:27:10;9.40;99.90
60860;DHT22;46694;54.382;9.708;2023-05-07T05:29:49;9.40;99.90
60860;DHT22;46694;54.382;9.708;2023-05-07T05:32:29;9.40;99.90
60860;DHT22;46694;54.382;9.708;2023-05-07T05:35:08;9.40;99.90
60860;DHT22;46694;54.382;9.708;2023-05-07T05:37:48;9.40;99.90
60860;DHT22;46694;54.382;9.708;2023-05-07T05:40:27;9.40;99.90
60860;DHT22;46694;54.382;9.708;2023-05-07T05:43:07;9.50;99.90
60860;DHT22;46694;54.382;9.708;2023-05-07T05:45:47;9.50;99.90
60860;DHT22;46694;54.382;9.708;2023-05-07T05:48:28;9.50;99.90
60860;DHT22;46694;54.382;9.708;2023-05-07T05:51:08;9.60;99.90
60860;DHT22;46694;54.382;9.708;2023-05-07T05:53:47;9.60;99.90
60860;DHT22;46694;54.382;9.708;2023-05-07T05:56:27;9.60;99.90
60860;DHT22;46694;54.382;9.708;2023-05-07T05:59:06;9.60;99.90
60860;DHT22;46694;54.382;9.708;2023-05-07T06:01:46;9.60;99.90
60860;DHT22;46694;54.382;9.708;2023-05-07T06:04:25;9.60;99.90
60860;DHT22;46694;54.382;9.708;2023-05-07T06:07:05;9.60;99.90
60860;DHT22;46694;54.382;9.708;2023-05-07T06:09:45;9.70;99.90
60860;DHT22;46694;54.382;9.708;2023-05-07T06:12:24;9.70;99.90
60860;DHT22;46694;54.382;9.708;2023-05-07T06:15:04;9.80;99.90
60860;DHT22;46694;54.382;9.708;2023-05-07T06:17:44;9.90;99.90
60860;DHT22;46694;54.382;9.708;2023-05-07T06:20:24;9.90;99.90
60860;DHT22;46694;54.382;9.708;2023-05-07T06:23:04;9.90;99.90
60860;DHT22;46694;54.382;9.708;2023-05-07T06:25:48;10.00;99.90
60860;DHT22;46694;54.382;9.708;2023-05-07T06:28:29;10.00;99.90
60860;DHT22;46694;54.382;9.708;2023-05-07T06:31:16;10.10;99.90
60860;DHT22;46694;54.382;9.708;2023-05-07T06:33:56;10.10;99.90
60860;DHT22;46694;54.382;9.708;2023-05-07T06:36:36;10.10;99.90
60860;DHT22;46694;54.382;9.708;2023-05-07T06:39:17;10.10;99.90
60860;DHT22;46694;54.382;9.708;2023-05-07T06:41:56;10.10;99.90
60860;DHT22;46694;54.382;9.708;2023-05-07T06:44:36;10.10;99.90
60860;DHT22;46694;54.382;9.708;2023-05-07T06:47:16;10.10;99.90
60860;DHT22;46694;54.382;9.708;2023-05-07T06:49:55;10.10;99.90
60860;DHT22;46694;54.382;9.708;2023-05-07T06:52:35;10.10;99.90
60860;DHT22;46694;54.382;9.708;2023-05-07T06:55:15;10.10;99.90
60860;DHT22;46694;54.382;9.708;2023-05-07T06:57:54;10.10;99.90
60860;DHT22;46694;54.382;9.708;2023-05-07T07:00:34;10.10;99.90
60860;DHT22;46694;54.382;9.708;2023-05-07T07:03:14;10.10;99.90
60860;DHT22;46694;54.382;9.708;2023-05-07T07:05:54;10.10;99.90
60860;DHT22;46694;54.382;9.708;2023-05-07T07:08:34;10.20;99.90
60860;DHT22;46694;54.382;9.708;2023-05-07T07:11:14;10.30;99.90
60860;DHT22;46694;54.382;9.708;2023-05-07T07:13:54;10.30;99.90
60860;DHT22;46694;54.382;9.708;2023-05-07T07:16:34;10.40;99.90
60860;DHT22;46694;54.382;9.708;2023-05-07T07:19:14;10.40;99.90
60860;DHT22;46694;54.382;9.708;2023-05-07T07:21:54;10.50;99.90
60860;DHT22;46694;54.382;9.708;2023-05-07T07:24:33;10.50;99.90
60860;DHT22;46694;54.382;9.708;2023-05-07T07:27:12;10.50;99.90
60860;DHT22;46694;54.382;9.708;2023-05-07T07:29:52;10.60;99.90
60860;DHT22;46694;54.382;9.708;2023-05-07T07:32:32;10.60;99.90
60860;DHT22;46694;54.382;9.708;2023-05-07T07:35:12;10.60;99.90
60860;DHT22;46694;54.382;9.708;2023-05-07T07:37:51;10.70;99.90
60860;DHT22;46694;54.382;9.708;2023-05-07T07:40:33;10.80;99.90
60860;DHT22;46694;54.382;9.708;2023-05-07T07:43:14;10.80;99.90
60860;DHT22;46694;54.382;9.708;2023-05-07T07:45:53;10.90;99.90
60860;DHT22;46694;54.382;9.708;2023-05-07T07:48:33;10.90;99.90
60860;DHT22;46694;54.382;9.708;2023-05-07T07:51:12;11.00;99.90
60860;DHT22;46694;54.382;9.708;2023-05-07T07:53:52;11.10;99.90
60860;DHT22;46694;54.382;9.708;2023-05-07T07:56:32;11.20;99.90
60860;DHT22;46694;54.382;9.708;2023-05-07T07:59:12;11.30;99.90
60860;DHT22;46694;54.382;9.708;2023-05-07T08:01:53;11.30;99.90
60860;DHT22;46694;54.382;9.708;2023-05-07T08:04:35;11.40;99.90
60860;DHT22;46694;54.382;9.708;2023-05-07T08:07:16;11.60;99.90
60860;DHT22;46694;54.382;9.708;2023-05-07T08:09:57;11.70;99.90
60860;DHT22;46694;54.382;9.708;2023-05-07T08:16:38;12.10;99.90
60860;DHT22;46694;54.382;9.708;2023-05-07T08:19:18;12.20;99.90
60860;DHT22;46694;54.382;9.708;2023-05-07T08:21:57;12.30;99.90
60860;DHT22;46694;54.382;9.708;2023-05-07T08:24:37;12.50;99.90
60860;DHT22;46694;54.382;9.708;2023-05-07T08:27:16;12.40;99.90
60860;DHT22;46694;54.382;9.708;2023-05-07T08:33:58;12.60;99.90
60860;DHT22;46694;54.382;9.708;2023-05-07T08:36:37;12.60;99.90
60860;DHT22;46694;54.382;9.708;2023-05-07T08:39:17;12.70;99.90
60860;DHT22;46694;54.382;9.708;2023-05-07T08:42:00;12.70;99.90
60860;DHT22;46694;54.382;9.708;2023-05-07T08:44:41;12.70;99.90
60860;DHT22;46694;54.382;9.708;2023-05-07T08:47:29;12.80;99.90
60860;DHT22;46694;54.382;9.708;2023-05-07T08:50:14;12.80;99.90
60860;DHT22;46694;54.382;9.708;2023-05-07T08:52:54;13.00;99.90
60860;DHT22;46694;54.382;9.708;2023-05-07T08:55:35;13.20;99.90
60860;DHT22;46694;54.382;9.708;2023-05-07T08:58:15;13.20;99.90
60860;DHT22;46694;54.382;9.708;2023-05-07T09:00:54;13.40;99.90
60860;DHT22;46694;54.382;9.708;2023-05-07T09:03:34;13.60;99.90
60860;DHT22;46694;54.382;9.708;2023-05-07T09:06:14;14.00;99.90
60860;DHT22;46694;54.382;9.708;2023-05-07T09:08:54;14.60;99.90
60860;DHT22;46694;54.382;9.708;2023-05-07T09:11:34;14.70;99.90
60860;DHT22;46694;54.382;9.708;2023-05-07T09:14:14;14.60;99.90
60860;DHT22;46694;54.382;9.708;2023-05-07T09:16:53;14.30;99.90
60860;DHT22;46694;54.382;9.708;2023-05-07T09:19:33;14.10;99.90
60860;DHT22;46694;54.382;9.708;2023-05-07T09:22:13;13.90;99.90
60860;DHT22;46694;54.382;9.708;2023-05-07T09:24:52;13.70;99.90
60860;DHT22;46694;54.382;9.708;2023-05-07T09:27:32;13.60;99.90
60860;DHT22;46694;54.382;9.708;2023-05-07T09:30:12;13.50;99.90
60860;DHT22;46694;54.382;9.708;2023-05-07T09:32:51;13.50;99.90
60860;DHT22;46694;54.382;9.708;2023-05-07T09:35:31;13.50;99.90
60860;DHT22;46694;54.382;9.708;2023-05-07T09:38:10;13.40;99.90
60860;DHT22;46694;54.382;9.708;2023-05-07T09:41:11;13.40;99.90
60860;DHT22;46694;54.382;9.708;2023-05-07T09:43:55;13.30;99.90
60860;DHT22;46694;54.382;9.708;2023-05-07T09:46:36;13.40;99.90
60860;DHT22;46694;54.382;9.708;2023-05-07T09:49:22;13.50;99.90
60860;DHT22;46694;54.382;9.708;2023-05-07T09:52:04;13.60;99.90
60860;DHT22;46694;54.382;9.708;2023-05-07T09:54:50;13.80;99.90
60860;DHT22;46694;54.382;9.708;2023-05-07T09:57:30;13.80;99.90
60860;DHT22;46694;54.382;9.708;2023-05-07T10:00:12;13.90;99.90
60860;DHT22;46694;54.382;9.708;2023-05-07T10:02:52;14.10;99.90
60860;DHT22;46694;54.382;9.708;2023-05-07T10:05:32;14.20;99.90
60860;DHT22;46694;54.382;9.708;2023-05-07T12:14:42;17.90;99.90
60860;DHT22;46694;54.382;9.708;2023-05-07T12:17:23;17.80;99.90
60860;DHT22;46694;54.382;9.708;2023-05-07T12:20:03;17.90;99.90
60860;DHT22;46694;54.382;9.708;2023-05-07T12:22:43;18.00;99.90
60860;DHT22;46694;54.382;9.708;2023-05-07T12:25:24;18.20;99.90
60860;DHT22;46694;54.382;9.708;2023-05-07T12:28:04;18.00;99.90
60860;DHT22;46694;54.382;9.708;2023-05-07T12:30:46;18.10;99.90
60860;DHT22;46694;54.382;9.708;2023-05-07T12:33:27;18.10;99.90
60860;DHT22;46694;54.382;9.708;2023-05-07T12:36:08;18.10;99.90
60860;DHT22;46694;54.382;9.708;2023-05-07T12:38:49;18.20;99.90
60860;DHT22;46694;54.382;9.708;2023-05-07T12:41:29;18.10;99.90
60860;DHT22;46694;54.382;9.708;2023-05-07T12:44:09;18.00;99.90
60860;DHT22;46694;54.382;9.708;2023-05-07T12:46:49;17.90;99.90
60860;DHT22;46694;54.382;9.708;2023-05-07T12:49:29;17.80;99.90
60860;DHT22;46694;54.382;9.708;2023-05-07T12:52:08;17.80;99.90
60860;DHT22;46694;54.382;9.708;2023-05-07T12:54:48;17.90;99.90
60860;DHT22;46694;54.382;9.708;2023-05-07T12:57:27;18.10;99.90
60860;DHT22;46694;54.382;9.708;2023-05-07T13:00:07;18.00;99.90
60860;DHT22;46694;54.382;9.708;2023-05-07T13:02:48;17.90;99.90
60860;DHT22;46694;54.382;9.708;2023-05-07T13:05:28;17.90;99.90
60860;DHT22;46694;54.382;9.708;2023-05-07T13:08:07;18.00;99.90
60860;DHT22;46694;54.382;9.708;2023-05-07T13:10:48;18.10;99.90
60860;DHT22;46694;54.382;9.708;2023-05-07T13:13:29;18.10;99.90
60860;DHT22;46694;54.382;9.708;2023-05-07T13:16:10;18.10;99.90
60860;DHT22;46694;54.382;9.708;2023-05-07T13:18:51;18.00;99.90
60860;DHT22;46694;54.382;9.708;2023-05-07T13:21:30;17.80;99.90
60860;DHT22;46694;54.382;9.708;2023-05-07T13:24:12;17.60;99.90
60860;DHT22;46694;54.382;9.708;2023-05-07T13:26:52;17.60;99.90
60860;DHT22;46694;54.382;9.708;2023-05-07T13:29:32;17.50;99.90
60860;DHT22;46694;54.382;9.708;2023-05-07T13:32:11;17.50;99.90
60860;DHT22;46694;54.382;9.708;2023-05-07T13:34:51;17.50;99.90
60860;DHT22;46694;54.382;9.708;2023-05-07T13:37:30;17.50;99.90
60860;DHT22;46694;54.382;9.708;2023-05-07T13:40:10;17.60;99.90
60860;DHT22;46694;54.382;9.708;2023-05-07T13:42:50;17.80;99.90
60860;DHT22;46694;54.382;9.708;2023-05-07T13:45:30;17.90;99.90
60860;DHT22;46694;54.382;9.708;2023-05-07T13:48:10;18.10;99.90
60860;DHT22;46694;54.382;9.708;2023-05-07T13:50:49;18.20;99.90
60860;DHT22;46694;54.382;9.708;2023-05-07T13:53:29;18.20;99.90
60860;DHT22;46694;54.382;9.708;2023-05-07T13:56:08;18.20;99.90
60860;DHT22;46694;54.382;9.708;2023-05-07T13:58:48;18.00;99.90
60860;DHT22;46694;54.382;9.708;2023-05-07T14:01:28;18.00;99.90
60860;DHT22;46694;54.382;9.708;2023-05-07T14:04:07;18.00;99.90
60860;DHT22;46694;54.382;9.708;2023-05-07T14:06:47;18.00;99.90
60860;DHT22;46694;54.382;9.708;2023-05-07T14:09:26;18.00;99.90
60860;DHT22;46694;54.382;9.708;2023-05-07T14:12:06;17.90;99.90
60860;DHT22;46694;54.382;9.708;2023-05-07T14:14:46;17.90;99.90
60860;DHT22;46694;54.382;9.708;2023-05-07T14:17:26;18.10;99.90
60860;DHT22;46694;54.382;9.708;2023-05-07T14:20:07;18.20;99.90
60860;DHT22;46694;54.382;9.708;2023-05-07T14:22:48;18.20;99.90
60860;DHT22;46694;54.382;9.708;2023-05-07T14:25:27;18.20;99.90
60860;DHT22;46694;54.382;9.708;2023-05-07T14:28:07;18.00;99.90
60860;DHT22;46694;54.382;9.708;2023-05-07T14:30:47;17.90;99.90
60860;DHT22;46694;54.382;9.708;2023-05-07T14:33:26;18.00;99.90
60860;DHT22;46694;54.382;9.708;2023-05-07T14:36:06;17.90;99.90
60860;DHT22;46694;54.382;9.708;2023-05-07T14:38:46;17.80;99.90
60860;DHT22;46694;54.382;9.708;2023-05-07T14:41:26;17.70;99.90
60860;DHT22;46694;54.382;9.708;2023-05-07T14:44:05;17.80;99.90
60860;DHT22;46694;54.382;9.708;2023-05-07T14:46:44;17.90;99.90
60860;DHT22;46694;54.382;9.708;2023-05-07T14:49:24;18.10;99.90
60860;DHT22;46694;54.382;9.708;2023-05-07T14:52:04;18.10;99.90
60860;DHT22;46694;54.382;9.708;2023-05-07T14:54:45;18.10;99.90
60860;DHT22;46694;54.382;9.708;2023-05-07T14:57:24;18.10;99.90
60860;DHT22;46694;54.382;9.708;2023-05-07T15:00:04;18.00;99.90
60860;DHT22;46694;54.382;9.708;2023-05-07T15:02:46;18.00;99.90
60860;DHT22;46694;54.382;9.708;2023-05-07T15:05:25;18.00;99.90
60860;DHT22;46694;54.382;9.708;2023-05-07T15:08:05;18.00;99.90
60860;DHT22;46694;54.382;9.708;2023-05-07T15:10:44;17.90;99.90
60860;DHT22;46694;54.382;9.708;2023-05-07T15:13:24;17.80;99.90
60860;DHT22;46694;54.382;9.708;2023-05-07T15:16:04;17.80;99.90
60860;DHT22;46694;54.382;9.708;2023-05-07T15:18:43;17.80;99.90
60860;DHT22;46694;54.382;9.708;2023-05-07T15:21:23;17.80;99.90
60860;DHT22;46694;54.382;9.708;2023-05-07T15:24:03;17.80;99.90
60860;DHT22;46694;54.382;9.708;2023-05-07T15:26:43;17.70;99.90
60860;DHT22;46694;54.382;9.708;2023-05-07T15:29:22;17.70;99.90
60860;DHT22;46694;54.382;9.708;2023-05-07T15:32:02;17.70;99.90
60860;DHT22;46694;54.382;9.708;2023-05-07T15:34:42;17.70;99.90
60860;DHT22;46694;54.382;9.708;2023-05-07T15:37:21;17.70;99.90
60860;DHT22;46694;54.382;9.708;2023-05-07T15:40:01;17.90;99.90
60860;DHT22;46694;54.382;9.708;2023-05-07T15:42:46;18.10;99.90
60860;DHT22;46694;54.382;9.708;2023-05-07T15:45:25;18.00;99.90
60860;DHT22;46694;54.382;9.708;2023-05-07T15:48:05;17.80;99.90
60860;DHT22;46694;54.382;9.708;2023-05-07T15:50:45;17.60;99.90
60860;DHT22;46694;54.382;9.708;2023-05-07T15:53:25;17.30;99.90
60860;DHT22;46694;54.382;9.708;2023-05-07T15:56:05;17.10;99.90
60860;DHT22;46694;54.382;9.708;2023-05-07T15:58:45;17.00;99.90
60860;DHT22;46694;54.382;9.708;2023-05-07T16:01:24;16.80;99.90
60860;DHT22;46694;54.382;9.708;2023-05-07T16:04:05;16.80;99.90
60860;DHT22;46694;54.382;9.708;2023-05-07T16:06:45;16.70;99.90
60860;DHT22;46694;54.382;9.708;2023-05-07T16:09:25;16.60;99.90
60860;DHT22;46694;54.382;9.708;2023-05-07T16:12:05;16.40;99.90
60860;DHT22;46694;54.382;9.708;2023-05-07T16:14:45;16.30;99.90
60860;DHT22;46694;54.382;9.708;2023-05-07T16:17:24;16.20;99.90
60860;DHT22;46694;54.382;9.708;2023-05-07T16:20:05;16.20;99.90
60860;DHT22;46694;54.382;9.708;2023-05-07T16:22:47;16.10;99.90
60860;DHT22;46694;54.382;9.708;2023-05-07T16:25:26;16.00;99.90
60860;DHT22;46694;54.382;9.708;2023-05-07T16:28:06;16.00;99.90
60860;DHT22;46694;54.382;9.708;2023-05-07T16:30:46;15.90;99.90
60860;DHT22;46694;54.382;9.708;2023-05-07T16:33:25;15.80;99.90
60860;DHT22;46694;54.382;9.708;2023-05-07T16:36:06;15.80;99.90
60860;DHT22;46694;54.382;9.708;2023-05-07T16:38:46;15.80;99.90
60860;DHT22;46694;54.382;9.708;2023-05-07T16:41:25;15.70;99.90
60860;DHT22;46694;54.382;9.708;2023-05-07T16:44:05;15.50;99.90
60860;DHT22;46694;54.382;9.708;2023-05-07T16:46:44;15.40;99.90
60860;DHT22;46694;54.382;9.708;2023-05-07T16:49:24;15.40;99.90
60860;DHT22;46694;54.382;9.708;2023-05-07T16:52:04;15.20;99.90
60860;DHT22;46694;54.382;9.708;2023-05-07T16:54:43;15.10;99.90
60860;DHT22;46694;54.382;9.708;2023-05-07T16:57:27;15.10;99.90
60860;DHT22;46694;54.382;9.708;2023-05-07T17:00:08;15.00;99.90
60860;DHT22;46694;54.382;9.708;2023-05-07T17:02:49;15.00;99.90
60860;DHT22;46694;54.382;9.708;2023-05-07T17:05:30;14.80;99.90
60860;DHT22;46694;54.382;9.708;2023-05-07T17:08:09;14.80;99.90
60860;DHT22;46694;54.382;9.708;2023-05-07T17:10:49;14.70;99.90
60860;DHT22;46694;54.382;9.708;2023-05-07T17:13:28;14.60;99.90
60860;DHT22;46694;54.382;9.708;2023-05-07T17:16:08;14.60;99.90
60860;DHT22;46694;54.382;9.708;2023-05-07T17:18:47;14.50;99.90
60860;DHT22;46694;54.382;9.708;2023-05-07T17:21:28;14.40;99.90
60860;DHT22;46694;54.382;9.708;2023-05-07T17:24:07;14.30;99.90
60860;DHT22;46694;54.382;9.708;2023-05-07T17:26:47;14.30;99.90
60860;DHT22;46694;54.382;9.708;2023-05-07T17:29:28;14.20;99.90
60860;DHT22;46694;54.382;9.708;2023-05-07T17:32:08;14.10;99.90
60860;DHT22;46694;54.382;9.708;2023-05-07T17:34:47;14.10;99.90
60860;DHT22;46694;54.382;9.708;2023-05-07T17:37:27;14.10;99.90
60860;DHT22;46694;54.382;9.708;2023-05-07T17:40:07;14.00;99.90
60860;DHT22;46694;54.382;9.708;2023-05-07T17:42:48;14.00;99.90
60860;DHT22;46694;54.382;9.708;2023-05-07T17:45:28;13.90;99.90
60860;DHT22;46694;54.382;9.708;2023-05-07T17:48:08;13.80;99.90
60860;DHT22;46694;54.382;9.708;2023-05-07T17:50:47;13.80;99.90
60860;DHT22;46694;54.382;9.708;2023-05-07T17:53:27;13.70;99.90
60860;DHT22;46694;54.382;9.708;2023-05-07T17:56:07;13.60;99.90
60860;DHT22;46694;54.382;9.708;2023-05-07T17:58:46;13.60;99.90
60860;DHT22;46694;54.382;9.708;2023-05-07T18:01:26;13.50;99.90
60860;DHT22;46694;54.382;9.708;2023-05-07T18:04:05;13.50;99.90
60860;DHT22;46694;54.382;9.708;2023-05-07T18:06:45;13.40;99.90
60860;DHT22;46694;54.382;9.708;2023-05-07T18:09:24;13.30;99.90
60860;DHT22;46694;54.382;9.708;2023-05-07T18:12:04;13.30;99.90
60860;DHT22;46694;54.382;9.708;2023-05-07T18:14:44;13.20;99.90
60860;DHT22;46694;54.382;9.708;2023-05-07T18:17:25;13.10;99.90
60860;DHT22;46694;54.382;9.708;2023-05-07T18:20:06;13.10;99.90
60860;DHT22;46694;54.382;9.708;2023-05-07T18:22:49;13.00;99.90
60860;DHT22;46694;54.382;9.708;2023-05-07T18:25:29;12.90;99.90
60860;DHT22;46694;54.382;9.708;2023-05-07T18:28:09;12.90;99.90
60860;DHT22;46694;54.382;9.708;2023-05-07T18:30:49;12.80;99.90
60860;DHT22;46694;54.382;9.708;2023-05-07T18:33:28;12.80;99.90
60860;DHT22;46694;54.382;9.708;2023-05-07T18:36:08;12.70;99.90
60860;DHT22;46694;54.382;9.708;2023-05-07T18:38:48;12.60;99.90
60860;DHT22;46694;54.382;9.708;2023-05-07T18:41:27;12.50;99.90
60860;DHT22;46694;54.382;9.708;2023-05-07T18:44:07;12.50;99.90
60860;DHT22;46694;54.382;9.708;2023-05-07T18:46:46;12.40;99.90
60860;DHT22;46694;54.382;9.708;2023-05-07T18:49:26;12.40;99.90
60860;DHT22;46694;54.382;9.708;2023-05-07T18:52:06;12.30;99.90
60860;DHT22;46694;54.382;9.708;2023-05-07T18:54:46;12.30;99.90
60860;DHT22;46694;54.382;9.708;2023-05-07T18:57:26;12.20;99.90
60860;DHT22;46694;54.382;9.708;2023-05-07T19:00:08;12.10;99.90
60860;DHT22;46694;54.382;9.708;2023-05-07T19:02:48;12.10;99.90
60860;DHT22;46694;54.382;9.708;2023-05-07T19:05:28;12.00;99.90
60860;DHT22;46694;54.382;9.708;2023-05-07T19:08:07;12.00;99.90
60860;DHT22;46694;54.382;9.708;2023-05-07T19:10:47;12.00;99.90
60860;DHT22;46694;54.382;9.708;2023-05-07T19:13:27;11.90;99.90